UAE7MY OMDB-YPPH
Flight info
| Callsign | UAE7MY |
|---|---|
| Flight time | N/A |
| Altitude | 33000 |
| Route | ANVIX L223 TARDI N629 GIDAN P570 KITAL L894 DONSA/N0504F350 L894 BIBGO DCT LAVOX DCT KADAP/N0497F370 DCT 0500S08730E DCT BEBIM DCT 15S100E 18S105E/N0489F390 DCT WONSA DCT CAR B469 TOPIR/N0484F380 L514 AVPAL Q38 JULIM |
| Aircraft | A388/J-SADE2E3FGHIJ3J4J5M1RWXY/LB1D1 |
Departure
| Time | N/A |
|---|---|
| Airport | Dubai International Airport (OMDB) |
Arrival
| Time | 2026-04-27 08:47 |
|---|---|
| Airport | Perth International Airport (YPPH) |
| Time | Latitude | Longitude | Altitude | Speed | Heading |
|---|---|---|---|---|---|
| 2026-04-27 06:12 | -15.70075 | 101.13705 | 38919 ft | 543 kts | 126° |
| 2026-04-27 06:12 | -15.72118 | 101.17046 | 38911 ft | 543 kts | 126° |
| 2026-04-27 06:13 | -15.76164 | 101.23669 | 38911 ft | 544 kts | 126° |
| 2026-04-27 06:13 | -15.80215 | 101.30304 | 38912 ft | 544 kts | 125° |
| 2026-04-27 06:14 | -15.84265 | 101.36944 | 38916 ft | 544 kts | 125° |
| 2026-04-27 06:14 | -15.88311 | 101.43583 | 38918 ft | 544 kts | 125° |
| 2026-04-27 06:15 | -15.92364 | 101.50239 | 38921 ft | 545 kts | 125° |
| 2026-04-27 06:15 | -15.96385 | 101.56850 | 38917 ft | 545 kts | 125° |
| 2026-04-27 06:16 | -16.00430 | 101.63506 | 38916 ft | 545 kts | 125° |
| 2026-04-27 06:16 | -16.04477 | 101.70171 | 38915 ft | 545 kts | 125° |
| 2026-04-27 06:17 | -16.08520 | 101.76835 | 38916 ft | 545 kts | 125° |
| 2026-04-27 06:17 | -16.12563 | 101.83506 | 38917 ft | 545 kts | 125° |
| 2026-04-27 06:18 | -16.16607 | 101.90184 | 38919 ft | 546 kts | 125° |
| 2026-04-27 06:18 | -16.20645 | 101.96860 | 38919 ft | 546 kts | 125° |
| 2026-04-27 06:19 | -16.24686 | 102.03546 | 38916 ft | 546 kts | 125° |
| 2026-04-27 06:19 | -16.28727 | 102.10237 | 38917 ft | 546 kts | 125° |
| 2026-04-27 06:20 | -16.32764 | 102.16929 | 38919 ft | 546 kts | 125° |
| 2026-04-27 06:20 | -16.36799 | 102.23624 | 38914 ft | 546 kts | 125° |
| 2026-04-27 06:21 | -16.40800 | 102.30269 | 38918 ft | 546 kts | 125° |
| 2026-04-27 06:21 | -16.44838 | 102.36981 | 38905 ft | 546 kts | 124° |
| 2026-04-27 06:22 | -16.48865 | 102.43681 | 38905 ft | 546 kts | 124° |
| 2026-04-27 06:22 | -16.52896 | 102.50394 | 38919 ft | 546 kts | 124° |
| 2026-04-27 06:23 | -16.56924 | 102.57109 | 38926 ft | 547 kts | 124° |
| 2026-04-27 06:23 | -16.60958 | 102.63840 | 38931 ft | 547 kts | 124° |
| 2026-04-27 06:24 | -16.64985 | 102.70565 | 38914 ft | 547 kts | 124° |
| 2026-04-27 06:24 | -16.69015 | 102.77303 | 38920 ft | 547 kts | 124° |
| 2026-04-27 06:25 | -16.73041 | 102.84040 | 38916 ft | 547 kts | 124° |
| 2026-04-27 06:25 | -16.77066 | 102.90782 | 38912 ft | 548 kts | 124° |
| 2026-04-27 06:26 | -16.81095 | 102.97537 | 38916 ft | 548 kts | 124° |
| 2026-04-27 06:26 | -16.85121 | 103.04294 | 38918 ft | 548 kts | 124° |
| 2026-04-27 06:27 | -16.89151 | 103.11064 | 38915 ft | 549 kts | 124° |
| 2026-04-27 06:27 | -16.93168 | 103.17818 | 38920 ft | 549 kts | 124° |
| 2026-04-27 06:28 | -16.97201 | 103.24607 | 38921 ft | 549 kts | 124° |
| 2026-04-27 06:28 | -17.01227 | 103.31391 | 38919 ft | 549 kts | 124° |
| 2026-04-27 06:29 | -17.05251 | 103.38177 | 38918 ft | 549 kts | 124° |
| 2026-04-27 06:29 | -17.09277 | 103.44974 | 38920 ft | 550 kts | 124° |
| 2026-04-27 06:30 | -17.13296 | 103.51765 | 38919 ft | 550 kts | 124° |
| 2026-04-27 06:30 | -17.17319 | 103.58571 | 38914 ft | 550 kts | 124° |
| 2026-04-27 06:31 | -17.21337 | 103.65374 | 38915 ft | 550 kts | 124° |
| 2026-04-27 06:31 | -17.25360 | 103.72193 | 38914 ft | 551 kts | 124° |
| 2026-04-27 06:32 | -17.29381 | 103.79015 | 38916 ft | 551 kts | 124° |
| 2026-04-27 06:32 | -17.33401 | 103.85843 | 38917 ft | 551 kts | 124° |
| 2026-04-27 06:33 | -17.37422 | 103.92680 | 38916 ft | 552 kts | 124° |
| 2026-04-27 06:33 | -17.41414 | 103.99473 | 38920 ft | 552 kts | 124° |
| 2026-04-27 06:34 | -17.45465 | 104.06374 | 38919 ft | 552 kts | 123° |
| 2026-04-27 06:34 | -17.49485 | 104.13229 | 38918 ft | 553 kts | 123° |
| 2026-04-27 06:35 | -17.53505 | 104.20092 | 38921 ft | 553 kts | 123° |
| 2026-04-27 06:35 | -17.57528 | 104.26967 | 38919 ft | 553 kts | 123° |
| 2026-04-27 06:36 | -17.61515 | 104.33787 | 38920 ft | 553 kts | 123° |
| 2026-04-27 06:36 | -17.65539 | 104.40677 | 38919 ft | 553 kts | 123° |
| 2026-04-27 06:37 | -17.69557 | 104.47564 | 38920 ft | 554 kts | 123° |
| 2026-04-27 06:37 | -17.73576 | 104.54461 | 38911 ft | 554 kts | 123° |
| 2026-04-27 06:38 | -17.77592 | 104.61359 | 38914 ft | 554 kts | 123° |
| 2026-04-27 06:38 | -17.81603 | 104.68257 | 38916 ft | 554 kts | 123° |
| 2026-04-27 06:39 | -17.85621 | 104.75172 | 38915 ft | 555 kts | 123° |
| 2026-04-27 06:39 | -17.88976 | 104.80952 | 38915 ft | 555 kts | 123° |
| 2026-04-27 06:40 | -17.93008 | 104.87902 | 38916 ft | 556 kts | 123° |
| 2026-04-27 06:40 | -17.97032 | 104.94844 | 38913 ft | 557 kts | 123° |
| 2026-04-27 06:41 | -18.01331 | 105.01581 | 38913 ft | 554 kts | 133° |
| 2026-04-27 06:41 | -18.06409 | 105.07675 | 38919 ft | 554 kts | 134° |
| 2026-04-27 06:42 | -18.11445 | 105.13733 | 38918 ft | 554 kts | 134° |
| 2026-04-27 06:42 | -18.16513 | 105.19829 | 38930 ft | 555 kts | 134° |
| 2026-04-27 06:43 | -18.21599 | 105.25947 | 38926 ft | 555 kts | 134° |
| 2026-04-27 06:43 | -18.26681 | 105.32068 | 38924 ft | 555 kts | 134° |
| 2026-04-27 06:44 | -18.31763 | 105.38196 | 38918 ft | 555 kts | 134° |
| 2026-04-27 06:44 | -18.36839 | 105.44324 | 38915 ft | 555 kts | 134° |
| 2026-04-27 06:45 | -18.41907 | 105.50447 | 38920 ft | 555 kts | 134° |
| 2026-04-27 06:45 | -18.46975 | 105.56577 | 38916 ft | 555 kts | 134° |
| 2026-04-27 06:46 | -18.52038 | 105.62707 | 38917 ft | 555 kts | 134° |
| 2026-04-27 06:46 | -18.57107 | 105.68849 | 38913 ft | 555 kts | 134° |
| 2026-04-27 06:47 | -18.62172 | 105.74994 | 38914 ft | 555 kts | 134° |
| 2026-04-27 06:47 | -18.67236 | 105.81143 | 38922 ft | 556 kts | 134° |
| 2026-04-27 06:48 | -18.72303 | 105.87302 | 38921 ft | 556 kts | 134° |
| 2026-04-27 06:48 | -18.77368 | 105.93463 | 38921 ft | 556 kts | 134° |
| 2026-04-27 06:49 | -18.82436 | 105.99636 | 38921 ft | 556 kts | 134° |
| 2026-04-27 06:49 | -18.87497 | 106.05807 | 38917 ft | 556 kts | 134° |
| 2026-04-27 06:50 | -18.92560 | 106.11985 | 38919 ft | 556 kts | 133° |
| 2026-04-27 06:50 | -18.97617 | 106.18162 | 38916 ft | 556 kts | 133° |
| 2026-04-27 06:51 | -19.02671 | 106.24343 | 38924 ft | 556 kts | 133° |
| 2026-04-27 06:51 | -19.07698 | 106.30497 | 38923 ft | 556 kts | 133° |
| 2026-04-27 06:52 | -19.12756 | 106.36694 | 38919 ft | 557 kts | 133° |
| 2026-04-27 06:52 | -19.17810 | 106.42893 | 38917 ft | 557 kts | 133° |
| 2026-04-27 06:53 | -19.22870 | 106.49105 | 38916 ft | 558 kts | 133° |
| 2026-04-27 06:53 | -19.27933 | 106.55329 | 38921 ft | 558 kts | 133° |
| 2026-04-27 06:54 | -19.33002 | 106.61565 | 38929 ft | 559 kts | 133° |
| 2026-04-27 06:54 | -19.38068 | 106.67804 | 38927 ft | 559 kts | 133° |
| 2026-04-27 06:55 | -19.43133 | 106.74050 | 38924 ft | 559 kts | 133° |
| 2026-04-27 06:55 | -19.48200 | 106.80303 | 38923 ft | 559 kts | 133° |
| 2026-04-27 06:56 | -19.53262 | 106.86557 | 38920 ft | 559 kts | 133° |
| 2026-04-27 06:56 | -19.58318 | 106.92810 | 38921 ft | 559 kts | 133° |
| 2026-04-27 06:57 | -19.63373 | 106.99069 | 38917 ft | 559 kts | 133° |
| 2026-04-27 06:57 | -19.68388 | 107.05285 | 38917 ft | 559 kts | 133° |
| 2026-04-27 06:58 | -19.75966 | 107.14690 | 38915 ft | 559 kts | 133° |
| 2026-04-27 06:59 | -19.81011 | 107.20959 | 38909 ft | 559 kts | 133° |
| 2026-04-27 06:59 | -19.86072 | 107.27254 | 38903 ft | 560 kts | 133° |
| 2026-04-27 07:00 | -19.91120 | 107.33542 | 38910 ft | 560 kts | 132° |
| 2026-04-27 07:00 | -19.96178 | 107.39848 | 38912 ft | 560 kts | 132° |
| 2026-04-27 07:01 | -20.01238 | 107.46163 | 38916 ft | 561 kts | 132° |
| 2026-04-27 07:01 | -20.06297 | 107.52483 | 38908 ft | 561 kts | 132° |
| 2026-04-27 07:02 | -20.11319 | 107.58766 | 38907 ft | 562 kts | 132° |
| 2026-04-27 07:02 | -20.16386 | 107.65110 | 38910 ft | 562 kts | 132° |
| 2026-04-27 07:03 | -20.21453 | 107.71462 | 38919 ft | 563 kts | 132° |
| 2026-04-27 07:03 | -20.26517 | 107.77816 | 38921 ft | 563 kts | 132° |
| 2026-04-27 07:04 | -20.31566 | 107.84160 | 38920 ft | 563 kts | 132° |
| 2026-04-27 07:04 | -20.36651 | 107.90555 | 38917 ft | 563 kts | 132° |
| 2026-04-27 07:05 | -20.41712 | 107.96927 | 38914 ft | 564 kts | 132° |
| 2026-04-27 07:05 | -20.46777 | 108.03312 | 38915 ft | 564 kts | 132° |
| 2026-04-27 07:06 | -20.51839 | 108.09700 | 38914 ft | 564 kts | 132° |
| 2026-04-27 07:06 | -20.56897 | 108.16090 | 38913 ft | 564 kts | 132° |
| 2026-04-27 07:07 | -20.61951 | 108.22482 | 38910 ft | 564 kts | 132° |
| 2026-04-27 07:07 | -20.66973 | 108.28841 | 38908 ft | 564 kts | 132° |
| 2026-04-27 07:08 | -20.72056 | 108.35284 | 38902 ft | 564 kts | 131° |
| 2026-04-27 07:08 | -20.77070 | 108.41647 | 38900 ft | 564 kts | 131° |
| 2026-04-27 07:09 | -20.82134 | 108.48080 | 38904 ft | 565 kts | 131° |
| 2026-04-27 07:09 | -20.87191 | 108.54513 | 38907 ft | 566 kts | 131° |
| 2026-04-27 07:10 | -20.92254 | 108.60960 | 38913 ft | 566 kts | 131° |
| 2026-04-27 07:10 | -20.97313 | 108.67409 | 38913 ft | 567 kts | 131° |
| 2026-04-27 07:11 | -21.02383 | 108.73881 | 38913 ft | 567 kts | 131° |
| 2026-04-27 07:11 | -21.07446 | 108.80351 | 38910 ft | 567 kts | 131° |
| 2026-04-27 07:12 | -21.12512 | 108.86832 | 38913 ft | 567 kts | 131° |
| 2026-04-27 07:12 | -21.17570 | 108.93311 | 38913 ft | 567 kts | 131° |
| 2026-04-27 07:13 | -21.22605 | 108.99767 | 38916 ft | 568 kts | 131° |
| 2026-04-27 07:13 | -21.27663 | 109.06261 | 38905 ft | 568 kts | 131° |
| 2026-04-27 07:14 | -21.32711 | 109.12749 | 38901 ft | 568 kts | 131° |
| 2026-04-27 07:14 | -21.37772 | 109.19262 | 38918 ft | 568 kts | 131° |
| 2026-04-27 07:15 | -21.42829 | 109.25778 | 38921 ft | 568 kts | 131° |
| 2026-04-27 07:15 | -21.47882 | 109.32295 | 38920 ft | 568 kts | 131° |
| 2026-04-27 07:16 | -21.52937 | 109.38824 | 38904 ft | 568 kts | 131° |
| 2026-04-27 07:16 | -21.57993 | 109.45361 | 38899 ft | 569 kts | 131° |
| 2026-04-27 07:17 | -21.63051 | 109.51910 | 38898 ft | 569 kts | 131° |
| 2026-04-27 07:17 | -21.68076 | 109.58422 | 38902 ft | 570 kts | 131° |
| 2026-04-27 07:18 | -21.73132 | 109.64984 | 38926 ft | 570 kts | 131° |
| 2026-04-27 07:18 | -21.78184 | 109.71548 | 38909 ft | 570 kts | 131° |
| 2026-04-27 07:19 | -21.83245 | 109.78131 | 38912 ft | 570 kts | 131° |
| 2026-04-27 07:19 | -21.88300 | 109.84712 | 38911 ft | 570 kts | 131° |
| 2026-04-27 07:20 | -21.93354 | 109.91297 | 38905 ft | 570 kts | 131° |
| 2026-04-27 07:20 | -21.98405 | 109.97886 | 38905 ft | 571 kts | 130° |
| 2026-04-27 07:21 | -22.03523 | 110.04432 | 38906 ft | 570 kts | 133° |
| 2026-04-27 07:21 | -22.08778 | 110.10841 | 38905 ft | 571 kts | 133° |
| 2026-04-27 07:22 | -22.14022 | 110.17264 | 38910 ft | 571 kts | 133° |
| 2026-04-27 07:22 | -22.19258 | 110.23718 | 38915 ft | 571 kts | 133° |
| 2026-04-27 07:23 | -22.24452 | 110.30135 | 38910 ft | 572 kts | 132° |
| 2026-04-27 07:23 | -22.29679 | 110.36604 | 38913 ft | 572 kts | 132° |
| 2026-04-27 07:24 | -22.34909 | 110.43082 | 38915 ft | 572 kts | 132° |
| 2026-04-27 07:24 | -22.40137 | 110.49567 | 38914 ft | 572 kts | 132° |
| 2026-04-27 07:25 | -22.45363 | 110.56058 | 38922 ft | 573 kts | 132° |
| 2026-04-27 07:25 | -22.50596 | 110.62565 | 38921 ft | 573 kts | 132° |
| 2026-04-27 07:26 | -22.55818 | 110.69067 | 38918 ft | 573 kts | 132° |
| 2026-04-27 07:26 | -22.61046 | 110.75584 | 38919 ft | 573 kts | 132° |
| 2026-04-27 07:27 | -22.66267 | 110.82102 | 38913 ft | 573 kts | 132° |
| 2026-04-27 07:27 | -22.71486 | 110.88623 | 38913 ft | 573 kts | 132° |
| 2026-04-27 07:28 | -22.76671 | 110.95112 | 38918 ft | 574 kts | 132° |
| 2026-04-27 07:28 | -22.81892 | 111.01653 | 38907 ft | 574 kts | 132° |
| 2026-04-27 07:29 | -22.87115 | 111.08206 | 38910 ft | 575 kts | 132° |
| 2026-04-27 07:29 | -22.92341 | 111.14771 | 38920 ft | 575 kts | 132° |
| 2026-04-27 07:30 | -22.97573 | 111.21352 | 38917 ft | 576 kts | 131° |
| 2026-04-27 07:30 | -23.02803 | 111.27938 | 38917 ft | 576 kts | 131° |
| 2026-04-27 07:31 | -23.08034 | 111.34536 | 38919 ft | 576 kts | 131° |
| 2026-04-27 07:31 | -23.13262 | 111.41137 | 38920 ft | 576 kts | 131° |
| 2026-04-27 07:32 | -23.18493 | 111.47751 | 38919 ft | 577 kts | 131° |
| 2026-04-27 07:32 | -23.23717 | 111.54364 | 38920 ft | 577 kts | 131° |
| 2026-04-27 07:33 | -23.28061 | 111.59871 | 38916 ft | 577 kts | 131° |
| 2026-04-27 07:33 | -23.33284 | 111.66499 | 38915 ft | 577 kts | 131° |
| 2026-04-27 07:34 | -23.38505 | 111.73134 | 38918 ft | 577 kts | 131° |
| 2026-04-27 07:34 | -23.43723 | 111.79773 | 38923 ft | 577 kts | 131° |
| 2026-04-27 07:35 | -23.48942 | 111.86422 | 38922 ft | 577 kts | 131° |
| 2026-04-27 07:35 | -23.54149 | 111.93067 | 38923 ft | 577 kts | 131° |
| 2026-04-27 07:36 | -23.59357 | 111.99720 | 38923 ft | 576 kts | 131° |
| 2026-04-27 07:36 | -23.64550 | 112.06363 | 38925 ft | 576 kts | 131° |
| 2026-04-27 07:37 | -23.69744 | 112.13016 | 38920 ft | 575 kts | 131° |
| 2026-04-27 07:37 | -23.74924 | 112.19659 | 38918 ft | 575 kts | 131° |
| 2026-04-27 07:38 | -23.80104 | 112.26313 | 38913 ft | 575 kts | 131° |
| 2026-04-27 07:38 | -23.85274 | 112.32962 | 38910 ft | 575 kts | 131° |
| 2026-04-27 07:39 | -23.90448 | 112.39625 | 38911 ft | 575 kts | 131° |
| 2026-04-27 07:39 | -23.95627 | 112.46305 | 38914 ft | 576 kts | 131° |
| 2026-04-27 07:40 | -24.00804 | 112.52990 | 38921 ft | 577 kts | 131° |
| 2026-04-27 07:40 | -24.05987 | 112.59692 | 38924 ft | 577 kts | 131° |
| 2026-04-27 07:41 | -24.11130 | 112.66353 | 38927 ft | 577 kts | 131° |
| 2026-04-27 07:41 | -24.16348 | 112.73118 | 38926 ft | 577 kts | 131° |
| 2026-04-27 07:42 | -24.21524 | 112.79840 | 38930 ft | 577 kts | 131° |
| 2026-04-27 07:42 | -24.26692 | 112.86558 | 38928 ft | 577 kts | 131° |
| 2026-04-27 07:43 | -24.31864 | 112.93293 | 38920 ft | 577 kts | 131° |
| 2026-04-27 07:43 | -24.37025 | 113.00023 | 38921 ft | 577 kts | 131° |
| 2026-04-27 07:44 | -24.42184 | 113.06758 | 38923 ft | 576 kts | 131° |
| 2026-04-27 07:44 | -24.47336 | 113.13494 | 38919 ft | 576 kts | 131° |
| 2026-04-27 07:45 | -24.52483 | 113.20235 | 38902 ft | 576 kts | 131° |
| 2026-04-27 07:45 | -24.57633 | 113.26988 | 38922 ft | 576 kts | 131° |
| 2026-04-27 07:46 | -24.62771 | 113.33733 | 38925 ft | 576 kts | 131° |
| 2026-04-27 07:46 | -24.67897 | 113.40474 | 38919 ft | 576 kts | 131° |
| 2026-04-27 07:47 | -24.73046 | 113.47254 | 38910 ft | 576 kts | 131° |
| 2026-04-27 07:47 | -24.78188 | 113.54034 | 38896 ft | 577 kts | 131° |
| 2026-04-27 07:48 | -24.83340 | 113.60831 | 38914 ft | 582 kts | 131° |
| 2026-04-27 07:48 | -24.88809 | 113.67340 | 38907 ft | 587 kts | 142° |
| 2026-04-27 07:49 | -24.95377 | 113.72694 | 38900 ft | 586 kts | 149° |
| 2026-04-27 07:49 | -25.02060 | 113.77784 | 38902 ft | 582 kts | 149° |
| 2026-04-27 07:50 | -25.08761 | 113.82898 | 38918 ft | 582 kts | 149° |
| 2026-04-27 07:50 | -25.15423 | 113.87978 | 38917 ft | 582 kts | 149° |
| 2026-04-27 07:51 | -25.22034 | 113.93023 | 38905 ft | 581 kts | 149° |
| 2026-04-27 07:51 | -25.28676 | 113.98099 | 38911 ft | 581 kts | 149° |
| 2026-04-27 07:52 | -25.35302 | 114.03170 | 38911 ft | 579 kts | 149° |
| 2026-04-27 07:52 | -25.41930 | 114.08250 | 38912 ft | 580 kts | 149° |
| 2026-04-27 07:53 | -25.48556 | 114.13334 | 38906 ft | 579 kts | 149° |
| 2026-04-27 07:53 | -25.55171 | 114.18418 | 38906 ft | 579 kts | 149° |
| 2026-04-27 07:54 | -25.61784 | 114.23507 | 38905 ft | 578 kts | 149° |
| 2026-04-27 07:54 | -25.68376 | 114.28585 | 38912 ft | 577 kts | 149° |
| 2026-04-27 07:55 | -25.74968 | 114.33672 | 38909 ft | 577 kts | 149° |
| 2026-04-27 07:55 | -25.81566 | 114.38769 | 38908 ft | 577 kts | 149° |
| 2026-04-27 07:56 | -25.88149 | 114.43863 | 38913 ft | 577 kts | 149° |
| 2026-04-27 07:56 | -25.94726 | 114.48959 | 38913 ft | 577 kts | 149° |
| 2026-04-27 07:57 | -26.01304 | 114.54063 | 38914 ft | 576 kts | 149° |
| 2026-04-27 07:57 | -26.07867 | 114.59163 | 38915 ft | 576 kts | 149° |
| 2026-04-27 07:58 | -26.14399 | 114.64244 | 38911 ft | 577 kts | 149° |
| 2026-04-27 07:58 | -26.20979 | 114.69372 | 38917 ft | 573 kts | 149° |
| 2026-04-27 07:59 | -26.27527 | 114.74481 | 38917 ft | 575 kts | 149° |
| 2026-04-27 07:59 | -26.37351 | 114.82158 | 38921 ft | 575 kts | 149° |
| 2026-04-27 08:00 | -26.43880 | 114.87271 | 38924 ft | 574 kts | 149° |
| 2026-04-27 08:00 | -26.50425 | 114.92402 | 38922 ft | 575 kts | 149° |
| 2026-04-27 08:01 | -26.56954 | 114.97529 | 38927 ft | 575 kts | 149° |
| 2026-04-27 08:01 | -26.63504 | 115.02679 | 38925 ft | 576 kts | 148° |
| 2026-04-27 08:02 | -26.70054 | 115.07837 | 38928 ft | 577 kts | 148° |
| 2026-04-27 08:02 | -26.76575 | 115.12979 | 38927 ft | 577 kts | 148° |
| 2026-04-27 08:03 | -26.83121 | 115.18149 | 38927 ft | 576 kts | 148° |
| 2026-04-27 08:03 | -26.89663 | 115.23323 | 38932 ft | 576 kts | 148° |
| 2026-04-27 08:04 | -26.96216 | 115.28512 | 38933 ft | 576 kts | 148° |
| 2026-04-27 08:04 | -27.02762 | 115.33705 | 38936 ft | 576 kts | 148° |
| 2026-04-27 08:05 | -27.09292 | 115.38892 | 38930 ft | 574 kts | 148° |
| 2026-04-27 08:05 | -27.15816 | 115.44081 | 38930 ft | 574 kts | 148° |
| 2026-04-27 08:06 | -27.22326 | 115.49267 | 38937 ft | 573 kts | 148° |
| 2026-04-27 08:06 | -27.28835 | 115.54459 | 38938 ft | 574 kts | 148° |
| 2026-04-27 08:07 | -27.35346 | 115.59660 | 38933 ft | 573 kts | 148° |
| 2026-04-27 08:07 | -27.42169 | 115.64179 | 38932 ft | 566 kts | 158° |
| 2026-04-27 08:08 | -27.49197 | 115.68185 | 38938 ft | 566 kts | 158° |
| 2026-04-27 08:08 | -27.56196 | 115.72207 | 38939 ft | 566 kts | 158° |
| 2026-04-27 08:09 | -27.63220 | 115.76243 | 38943 ft | 564 kts | 158° |
| 2026-04-27 08:09 | -27.70221 | 115.80269 | 38946 ft | 566 kts | 158° |
| 2026-04-27 08:10 | -27.77243 | 115.84312 | 38939 ft | 566 kts | 158° |
| 2026-04-27 08:10 | -27.84182 | 115.88316 | 38943 ft | 565 kts | 158° |
| 2026-04-27 08:11 | -27.91179 | 115.92356 | 38965 ft | 566 kts | 158° |
| 2026-04-27 08:11 | -27.98178 | 115.96404 | 38961 ft | 564 kts | 158° |
| 2026-04-27 08:12 | -28.05137 | 116.00437 | 38962 ft | 561 kts | 158° |
| 2026-04-27 08:12 | -28.12096 | 116.04473 | 38966 ft | 563 kts | 158° |
| 2026-04-27 08:13 | -28.19064 | 116.08521 | 38966 ft | 562 kts | 158° |
| 2026-04-27 08:13 | -28.26022 | 116.12569 | 38972 ft | 563 kts | 158° |
| 2026-04-27 08:14 | -28.32977 | 116.16622 | 38978 ft | 561 kts | 158° |
| 2026-04-27 08:14 | -28.39906 | 116.20665 | 38980 ft | 562 kts | 158° |
| 2026-04-27 08:15 | -28.46843 | 116.24719 | 38981 ft | 559 kts | 158° |
| 2026-04-27 08:15 | -28.53776 | 116.28777 | 38985 ft | 560 kts | 158° |
| 2026-04-27 08:16 | -28.60683 | 116.32827 | 38989 ft | 558 kts | 158° |
| 2026-04-27 08:16 | -28.67569 | 116.36868 | 38991 ft | 559 kts | 158° |
| 2026-04-27 08:17 | -28.74512 | 116.40949 | 38992 ft | 559 kts | 158° |
| 2026-04-27 08:17 | -28.81428 | 116.45021 | 38994 ft | 558 kts | 158° |
| 2026-04-27 08:18 | -28.88326 | 116.49089 | 39000 ft | 558 kts | 158° |
| 2026-04-27 08:18 | -28.95184 | 116.53138 | 39001 ft | 559 kts | 157° |
| 2026-04-27 08:19 | -29.00960 | 116.56554 | 39002 ft | 559 kts | 157° |
| 2026-04-27 08:19 | -29.08988 | 116.61310 | 39007 ft | 557 kts | 157° |
| 2026-04-27 08:20 | -29.14823 | 116.64520 | 39008 ft | 554 kts | 165° |
| 2026-04-27 08:20 | -29.22189 | 116.66487 | 39008 ft | 532 kts | 181° |
| 2026-04-27 08:21 | -29.25817 | 116.66665 | 39006 ft | 513 kts | 189° |
| 2026-04-27 08:21 | -29.29360 | 116.66549 | 39015 ft | 509 kts | 188° |
| 2026-04-27 08:21 | -29.36463 | 116.66368 | 39016 ft | 512 kts | 188° |
| 2026-04-27 08:22 | -29.43585 | 116.66190 | 39016 ft | 511 kts | 188° |
| 2026-04-27 08:22 | -29.50699 | 116.66002 | 38805 ft | 513 kts | 188° |
| 2026-04-27 08:23 | -29.54226 | 116.65908 | 38564 ft | 511 kts | 188° |
| 2026-04-27 08:23 | -29.57807 | 116.65814 | 38287 ft | 507 kts | 188° |
| 2026-04-27 08:23 | -29.61288 | 116.65722 | 38029 ft | 506 kts | 188° |
| 2026-04-27 08:23 | -29.64817 | 116.65625 | 37770 ft | 510 kts | 188° |
| 2026-04-27 08:24 | -29.68431 | 116.65524 | 37500 ft | 515 kts | 188° |
| 2026-04-27 08:24 | -29.72013 | 116.65426 | 37240 ft | 517 kts | 188° |
| 2026-04-27 08:24 | -29.75616 | 116.65330 | 37004 ft | 517 kts | 188° |
| 2026-04-27 08:24 | -29.79173 | 116.65237 | 36751 ft | 517 kts | 188° |
| 2026-04-27 08:25 | -29.82771 | 116.65141 | 36500 ft | 519 kts | 187° |
| 2026-04-27 08:25 | -29.86360 | 116.65044 | 36266 ft | 520 kts | 187° |
| 2026-04-27 08:25 | -29.90044 | 116.64946 | 36012 ft | 519 kts | 187° |
| 2026-04-27 08:25 | -29.93657 | 116.64849 | 35775 ft | 520 kts | 187° |
| 2026-04-27 08:26 | -29.97260 | 116.64753 | 35539 ft | 516 kts | 187° |
| 2026-04-27 08:26 | -30.00840 | 116.64657 | 35303 ft | 516 kts | 187° |
| 2026-04-27 08:26 | -30.04452 | 116.64556 | 35028 ft | 522 kts | 186° |
| 2026-04-27 08:26 | -30.08091 | 116.64456 | 34696 ft | 523 kts | 186° |
| 2026-04-27 08:27 | -30.11722 | 116.64359 | 34351 ft | 522 kts | 186° |
| 2026-04-27 08:27 | -30.15294 | 116.64264 | 34032 ft | 519 kts | 186° |
| 2026-04-27 08:27 | -30.18916 | 116.64166 | 33566 ft | 526 kts | 185° |
| 2026-04-27 08:27 | -30.22656 | 116.64062 | 33202 ft | 532 kts | 185° |
| 2026-04-27 08:28 | -30.26344 | 116.63963 | 32647 ft | 529 kts | 185° |
| 2026-04-27 08:28 | -30.30022 | 116.63865 | 31641 ft | 530 kts | 185° |
| 2026-04-27 08:28 | -30.33673 | 116.63766 | 30700 ft | 530 kts | 185° |
| 2026-04-27 08:28 | -30.37341 | 116.63668 | 29959 ft | 526 kts | 185° |
| 2026-04-27 08:29 | -30.41032 | 116.63570 | 29254 ft | 518 kts | 185° |
| 2026-04-27 08:29 | -30.44567 | 116.63463 | 28587 ft | 511 kts | 187° |
| 2026-04-27 08:29 | -30.48045 | 116.62878 | 27854 ft | 500 kts | 198° |
| 2026-04-27 08:29 | -30.51300 | 116.61596 | 27038 ft | 491 kts | 206° |
| 2026-04-27 08:30 | -30.54468 | 116.60076 | 26020 ft | 493 kts | 207° |
| 2026-04-27 08:30 | -30.57622 | 116.58563 | 25496 ft | 489 kts | 207° |
| 2026-04-27 08:30 | -30.60774 | 116.57069 | 25234 ft | 491 kts | 206° |
| 2026-04-27 08:30 | -30.63940 | 116.55577 | 25077 ft | 490 kts | 206° |
| 2026-04-27 08:31 | -30.67104 | 116.54095 | 25024 ft | 489 kts | 206° |
| 2026-04-27 08:31 | -30.70249 | 116.52622 | 25023 ft | 490 kts | 206° |
| 2026-04-27 08:31 | -30.73415 | 116.51140 | 25026 ft | 490 kts | 206° |
| 2026-04-27 08:31 | -30.76574 | 116.49659 | 25024 ft | 490 kts | 206° |
| 2026-04-27 08:32 | -30.79738 | 116.48175 | 24926 ft | 488 kts | 206° |
| 2026-04-27 08:32 | -30.82921 | 116.46682 | 24569 ft | 486 kts | 206° |
| 2026-04-27 08:32 | -30.86010 | 116.45232 | 24003 ft | 483 kts | 206° |
| 2026-04-27 08:32 | -30.89113 | 116.43774 | 23349 ft | 480 kts | 206° |
| 2026-04-27 08:33 | -30.92235 | 116.42306 | 22612 ft | 475 kts | 206° |
| 2026-04-27 08:33 | -30.95242 | 116.40892 | 21906 ft | 470 kts | 206° |
| 2026-04-27 08:33 | -30.98259 | 116.39471 | 21208 ft | 464 kts | 206° |
| 2026-04-27 08:33 | -31.01278 | 116.38049 | 20524 ft | 460 kts | 206° |
| 2026-04-27 08:34 | -31.04187 | 116.36676 | 19868 ft | 456 kts | 206° |
| 2026-04-27 08:34 | -31.07108 | 116.35297 | 19221 ft | 451 kts | 206° |
| 2026-04-27 08:34 | -31.10003 | 116.33930 | 18566 ft | 446 kts | 206° |
| 2026-04-27 08:34 | -31.12866 | 116.32577 | 17822 ft | 440 kts | 206° |
| 2026-04-27 08:35 | -31.15671 | 116.31252 | 16995 ft | 430 kts | 206° |
| 2026-04-27 08:35 | -31.18411 | 116.29958 | 16257 ft | 419 kts | 206° |
| 2026-04-27 08:35 | -31.21081 | 116.28695 | 15508 ft | 409 kts | 207° |
| 2026-04-27 08:35 | -31.23679 | 116.27465 | 14795 ft | 398 kts | 207° |
| 2026-04-27 08:36 | -31.26221 | 116.26259 | 14106 ft | 389 kts | 207° |
| 2026-04-27 08:36 | -31.28699 | 116.25083 | 13357 ft | 381 kts | 207° |
| 2026-04-27 08:36 | -31.31130 | 116.23928 | 12562 ft | 374 kts | 207° |
| 2026-04-27 08:36 | -31.33519 | 116.22793 | 11789 ft | 368 kts | 207° |
| 2026-04-27 08:37 | -31.35872 | 116.21675 | 11044 ft | 362 kts | 207° |
| 2026-04-27 08:37 | -31.38180 | 116.20577 | 10320 ft | 356 kts | 207° |
| 2026-04-27 08:37 | -31.40461 | 116.19491 | 9574 ft | 351 kts | 207° |
| 2026-04-27 08:37 | -31.42687 | 116.18433 | 9164 ft | 336 kts | 207° |
| 2026-04-27 08:38 | -31.44792 | 116.17436 | 8978 ft | 316 kts | 207° |
| 2026-04-27 08:38 | -31.46768 | 116.16500 | 8783 ft | 298 kts | 208° |
| 2026-04-27 08:38 | -31.48659 | 116.15600 | 8337 ft | 291 kts | 208° |
| 2026-04-27 08:38 | -31.50529 | 116.14701 | 7774 ft | 290 kts | 208° |
| 2026-04-27 08:39 | -31.52381 | 116.13811 | 7247 ft | 287 kts | 208° |
| 2026-04-27 08:39 | -31.54226 | 116.12925 | 6713 ft | 285 kts | 208° |
| 2026-04-27 08:39 | -31.56053 | 116.12052 | 6151 ft | 284 kts | 208° |
| 2026-04-27 08:39 | -31.57599 | 116.11308 | 5720 ft | 281 kts | 208° |
| 2026-04-27 08:40 | -31.59415 | 116.10436 | 5120 ft | 282 kts | 207° |
| 2026-04-27 08:40 | -31.61218 | 116.09569 | 4791 ft | 279 kts | 206° |
| 2026-04-27 08:40 | -31.63008 | 116.08713 | 4650 ft | 278 kts | 207° |
| 2026-04-27 08:40 | -31.64804 | 116.07854 | 4449 ft | 278 kts | 207° |
| 2026-04-27 08:41 | -31.66573 | 116.07004 | 4198 ft | 272 kts | 206° |
| 2026-04-27 08:41 | -31.68315 | 116.06162 | 3948 ft | 268 kts | 206° |
| 2026-04-27 08:41 | -31.70035 | 116.05343 | 3709 ft | 266 kts | 206° |
| 2026-04-27 08:41 | -31.71716 | 116.04537 | 3463 ft | 265 kts | 206° |
| 2026-04-27 08:42 | -31.73433 | 116.03714 | 3201 ft | 260 kts | 206° |
| 2026-04-27 08:42 | -31.75087 | 116.02917 | 2923 ft | 252 kts | 206° |
| 2026-04-27 08:42 | -31.76685 | 116.02152 | 2682 ft | 245 kts | 205° |
| 2026-04-27 08:42 | -31.78215 | 116.01427 | 2515 ft | 227 kts | 205° |
| 2026-04-27 08:43 | -31.79604 | 116.00814 | 2492 ft | 206 kts | 202° |
| 2026-04-27 08:43 | -31.80898 | 116.00349 | 2495 ft | 183 kts | 198° |
| 2026-04-27 08:43 | -31.82084 | 115.99993 | 2273 ft | 173 kts | 195° |
| 2026-04-27 08:43 | -31.83234 | 115.99655 | 2018 ft | 162 kts | 197° |
| 2026-04-27 08:44 | -31.84297 | 115.99338 | 1805 ft | 155 kts | 195° |
| 2026-04-27 08:44 | -31.85299 | 115.99051 | 1596 ft | 146 kts | 195° |
| 2026-04-27 08:44 | -31.86292 | 115.98762 | 1391 ft | 143 kts | 194° |
| 2026-04-27 08:44 | -31.87242 | 115.98484 | 1202 ft | 139 kts | 194° |
| 2026-04-27 08:45 | -31.88164 | 115.98216 | 1025 ft | 137 kts | 193° |
| 2026-04-27 08:45 | -31.89082 | 115.97959 | 948 ft | 135 kts | 192° |
| 2026-04-27 08:45 | -31.90004 | 115.97716 | 853 ft | 136 kts | 194° |
| 2026-04-27 08:45 | -31.90920 | 115.97443 | 666 ft | 135 kts | 195° |
| 2026-04-27 08:46 | -31.91829 | 115.97148 | 374 ft | 135 kts | 194° |
| 2026-04-27 08:46 | -31.92731 | 115.96887 | 126 ft | 133 kts | 194° |
| 2026-04-27 08:46 | -31.93565 | 115.96644 | 63 ft | 104 kts | 193° |
| 2026-04-27 08:46 | -31.94144 | 115.96478 | 71 ft | 69 kts | 195° |
| 2026-04-27 08:47 | -31.94404 | 115.96420 | 69 ft | 15 kts | 171° |
| 2026-04-27 08:47 | -31.94472 | 115.96483 | 68 ft | 12 kts | 102° |
| 2026-04-27 08:47 | -31.94492 | 115.96587 | 64 ft | 13 kts | 104° |
| 2026-04-27 08:47 | -31.94497 | 115.96609 | 65 ft | 0 kts | 104° |
| 2026-04-27 08:48 | -31.94497 | 115.96611 | 65 ft | 0 kts | 104° |
| 2026-04-27 08:48 | -31.94498 | 115.96616 | 66 ft | 0 kts | 104° |
| 2026-04-27 08:49 | -31.94499 | 115.96621 | 68 ft | 2 kts | 104° |
| 2026-04-27 08:49 | -31.94507 | 115.96658 | 64 ft | 6 kts | 103° |
| 2026-04-27 08:49 | -31.94501 | 115.96705 | 65 ft | 6 kts | 52° |
| 2026-04-27 08:49 | -31.94459 | 115.96730 | 68 ft | 9 kts | 15° |
| 2026-04-27 08:50 | -31.94390 | 115.96752 | 65 ft | 12 kts | 15° |
| 2026-04-27 08:50 | -31.94299 | 115.96780 | 68 ft | 14 kts | 13° |
| 2026-04-27 08:50 | -31.94199 | 115.96806 | 64 ft | 11 kts | 13° |
| 2026-04-27 08:50 | -31.94126 | 115.96828 | 68 ft | 11 kts | 14° |
| 2026-04-27 08:51 | -31.94058 | 115.96847 | 68 ft | 8 kts | 14° |
| 2026-04-27 08:51 | -31.94014 | 115.96860 | 68 ft | 0 kts | 14° |
| 2026-04-27 08:51 | -31.94003 | 115.96863 | 65 ft | 4 kts | 14° |
| 2026-04-27 08:51 | -31.93964 | 115.96875 | 68 ft | 8 kts | 15° |
| 2026-04-27 08:52 | -31.93919 | 115.96918 | 69 ft | 9 kts | 64° |
| 2026-04-27 08:52 | -31.93921 | 115.96977 | 67 ft | 9 kts | 99° |
| 2026-04-27 08:52 | -31.93935 | 115.97059 | 70 ft | 12 kts | 102° |
| 2026-04-27 08:52 | -31.93956 | 115.97147 | 66 ft | 7 kts | 104° |
| 2026-04-27 08:53 | -31.93961 | 115.97165 | 64 ft | 3 kts | 105° |
| 2026-04-27 08:53 | -31.93969 | 115.97197 | 66 ft | 4 kts | 130° |
| 2026-04-27 08:53 | -31.93983 | 115.97209 | 62 ft | 1 kts | 173° |
| 2026-04-27 08:53 | -31.94002 | 115.97211 | 62 ft | 0 kts | 175° |
| 2026-04-27 08:54 | -31.94010 | 115.97212 | 65 ft | 3 kts | 171° |
| 2026-04-27 08:54 | -31.94045 | 115.97219 | 68 ft | 2 kts | 172° |
| 2026-04-27 08:54 | -31.94052 | 115.97220 | 64 ft | 0 kts | 171° |